sensor_id;sensor_type;location;lat;lon;timestamp;temperature;humidity
28614;DHT22;15806;53.548;9.964;2022-10-22T04:15:25;30.30;99.90
28614;DHT22;15806;53.548;9.964;2022-10-22T06:04:02;30.00;99.90
28614;DHT22;15806;53.548;9.964;2022-10-22T06:05:43;30.00;99.90
28614;DHT22;15806;53.548;9.964;2022-10-22T06:07:24;30.00;99.90
28614;DHT22;15806;53.548;9.964;2022-10-22T06:09:11;29.90;99.90
28614;DHT22;15806;53.548;9.964;2022-10-22T06:10:53;29.90;99.90
28614;DHT22;15806;53.548;9.964;2022-10-22T06:12:33;29.80;99.90
28614;DHT22;15806;53.548;9.964;2022-10-22T06:14:14;29.80;99.90
28614;DHT22;15806;53.548;9.964;2022-10-22T06:15:55;29.70;99.90
28614;DHT22;15806;53.548;9.964;2022-10-22T06:17:36;29.80;99.90
28614;DHT22;15806;53.548;9.964;2022-10-22T06:19:18;29.80;99.90
28614;DHT22;15806;53.548;9.964;2022-10-22T06:21:13;29.90;99.90
28614;DHT22;15806;53.548;9.964;2022-10-22T06:22:54;29.90;99.90
28614;DHT22;15806;53.548;9.964;2022-10-22T06:24:35;29.90;99.90
28614;DHT22;15806;53.548;9.964;2022-10-22T06:26:15;29.90;99.90
28614;DHT22;15806;53.548;9.964;2022-10-22T06:27:56;29.90;99.90
28614;DHT22;15806;53.548;9.964;2022-10-22T06:29:37;30.00;99.90
28614;DHT22;15806;53.548;9.964;2022-10-22T06:31:17;29.90;99.90
28614;DHT22;15806;53.548;9.964;2022-10-22T06:32:59;29.90;99.90
28614;DHT22;15806;53.548;9.964;2022-10-22T06:34:39;29.90;99.90
28614;DHT22;15806;53.548;9.964;2022-10-22T06:36:22;29.90;99.90
28614;DHT22;15806;53.548;9.964;2022-10-22T06:38:03;29.80;99.90
28614;DHT22;15806;53.548;9.964;2022-10-22T06:39:43;29.70;99.90
28614;DHT22;15806;53.548;9.964;2022-10-22T06:41:24;29.90;99.90
28614;DHT22;15806;53.548;9.964;2022-10-22T06:43:05;29.90;99.90
28614;DHT22;15806;53.548;9.964;2022-10-22T06:44:45;29.90;99.90
28614;DHT22;15806;53.548;9.964;2022-10-22T06:46:26;29.90;99.90
28614;DHT22;15806;53.548;9.964;2022-10-22T06:48:06;29.80;99.90
28614;DHT22;15806;53.548;9.964;2022-10-22T06:49:48;29.80;99.90
28614;DHT22;15806;53.548;9.964;2022-10-22T06:51:28;29.80;99.90
28614;DHT22;15806;53.548;9.964;2022-10-22T06:53:09;29.70;99.90
28614;DHT22;15806;53.548;9.964;2022-10-22T06:54:50;29.70;99.90
28614;DHT22;15806;53.548;9.964;2022-10-22T06:56:30;29.70;99.90
28614;DHT22;15806;53.548;9.964;2022-10-22T06:58:11;29.80;99.90
28614;DHT22;15806;53.548;9.964;2022-10-22T06:59:51;29.70;99.90
28614;DHT22;15806;53.548;9.964;2022-10-22T07:01:33;29.70;99.90
28614;DHT22;15806;53.548;9.964;2022-10-22T07:03:14;29.60;99.90
28614;DHT22;15806;53.548;9.964;2022-10-22T07:04:55;29.60;99.90
28614;DHT22;15806;53.548;9.964;2022-10-22T07:06:36;29.60;99.90
28614;DHT22;15806;53.548;9.964;2022-10-22T07:08:16;29.60;99.90
28614;DHT22;15806;53.548;9.964;2022-10-22T07:09:57;29.60;99.90
28614;DHT22;15806;53.548;9.964;2022-10-22T07:11:42;29.60;99.90
28614;DHT22;15806;53.548;9.964;2022-10-22T07:13:23;29.60;99.90
28614;DHT22;15806;53.548;9.964;2022-10-22T07:15:05;29.70;99.90
28614;DHT22;15806;53.548;9.964;2022-10-22T07:16:46;29.60;99.90
28614;DHT22;15806;53.548;9.964;2022-10-22T07:18:27;29.70;99.90
28614;DHT22;15806;53.548;9.964;2022-10-22T07:20:08;29.60;99.90
28614;DHT22;15806;53.548;9.964;2022-10-22T07:21:48;29.60;99.90
28614;DHT22;15806;53.548;9.964;2022-10-22T07:23:29;29.60;99.90
28614;DHT22;15806;53.548;9.964;2022-10-22T07:25:10;29.60;99.90
28614;DHT22;15806;53.548;9.964;2022-10-22T07:26:50;29.60;99.90
28614;DHT22;15806;53.548;9.964;2022-10-22T07:28:31;29.60;99.90
28614;DHT22;15806;53.548;9.964;2022-10-22T07:30:12;29.60;99.90
28614;DHT22;15806;53.548;9.964;2022-10-22T07:31:52;29.50;99.90
28614;DHT22;15806;53.548;9.964;2022-10-22T07:33:33;29.60;99.90
28614;DHT22;15806;53.548;9.964;2022-10-22T07:35:15;29.50;99.90
28614;DHT22;15806;53.548;9.964;2022-10-22T07:36:56;29.50;99.90
28614;DHT22;15806;53.548;9.964;2022-10-22T07:38:37;29.50;99.90
28614;DHT22;15806;53.548;9.964;2022-10-22T07:40:17;29.50;99.90
28614;DHT22;15806;53.548;9.964;2022-10-22T07:41:58;29.70;99.90
28614;DHT22;15806;53.548;9.964;2022-10-22T07:43:38;29.80;99.90
28614;DHT22;15806;53.548;9.964;2022-10-22T07:45:19;30.00;99.90
28614;DHT22;15806;53.548;9.964;2022-10-22T07:46:59;30.10;99.90
28614;DHT22;15806;53.548;9.964;2022-10-22T07:48:40;30.10;99.90
28614;DHT22;15806;53.548;9.964;2022-10-22T07:50:20;30.40;99.90
28614;DHT22;15806;53.548;9.964;2022-10-22T07:52:01;30.40;99.90
28614;DHT22;15806;53.548;9.964;2022-10-22T07:53:42;30.30;99.90
28614;DHT22;15806;53.548;9.964;2022-10-22T07:55:22;30.20;99.90
28614;DHT22;15806;53.548;9.964;2022-10-22T07:57:03;30.30;99.90
28614;DHT22;15806;53.548;9.964;2022-10-22T07:58:44;30.60;99.90
28614;DHT22;15806;53.548;9.964;2022-10-22T08:00:25;30.90;99.90
28614;DHT22;15806;53.548;9.964;2022-10-22T08:02:06;31.00;99.90
28614;DHT22;15806;53.548;9.964;2022-10-22T08:03:46;30.80;99.90
28614;DHT22;15806;53.548;9.964;2022-10-22T08:05:27;30.90;99.90
28614;DHT22;15806;53.548;9.964;2022-10-22T08:07:07;30.90;99.90
28614;DHT22;15806;53.548;9.964;2022-10-22T08:08:48;30.90;99.90
28614;DHT22;15806;53.548;9.964;2022-10-22T08:10:28;31.10;99.90
28614;DHT22;15806;53.548;9.964;2022-10-22T08:12:09;31.30;99.90
28614;DHT22;15806;53.548;9.964;2022-10-22T08:13:49;31.30;99.90
28614;DHT22;15806;53.548;9.964;2022-10-22T08:15:30;31.10;99.90
28614;DHT22;15806;53.548;9.964;2022-10-22T08:17:10;30.90;99.90
28614;DHT22;15806;53.548;9.964;2022-10-22T08:18:51;31.20;99.90
28614;DHT22;15806;53.548;9.964;2022-10-22T08:20:32;31.20;99.90
28614;DHT22;15806;53.548;9.964;2022-10-22T08:22:12;31.30;99.90
28614;DHT22;15806;53.548;9.964;2022-10-22T08:23:53;31.30;99.90
28614;DHT22;15806;53.548;9.964;2022-10-22T08:25:33;31.40;99.90
28614;DHT22;15806;53.548;9.964;2022-10-22T08:27:14;31.30;99.90
28614;DHT22;15806;53.548;9.964;2022-10-22T08:28:55;31.60;99.90
28614;DHT22;15806;53.548;9.964;2022-10-22T08:30:36;31.20;99.90
28614;DHT22;15806;53.548;9.964;2022-10-22T08:32:17;31.20;99.90
28614;DHT22;15806;53.548;9.964;2022-10-22T08:33:59;30.40;99.90
28614;DHT22;15806;53.548;9.964;2022-10-22T08:35:39;30.00;99.90
28614;DHT22;15806;53.548;9.964;2022-10-22T08:37:20;29.30;99.90
28614;DHT22;15806;53.548;9.964;2022-10-22T08:39:00;28.60;99.90
28614;DHT22;15806;53.548;9.964;2022-10-22T08:40:41;28.10;99.90
28614;DHT22;15806;53.548;9.964;2022-10-22T08:42:53;27.80;99.90
28614;DHT22;15806;53.548;9.964;2022-10-22T08:45:07;27.00;99.90
28614;DHT22;15806;53.548;9.964;2022-10-22T08:47:20;26.50;99.90
28614;DHT22;15806;53.548;9.964;2022-10-22T08:49:16;26.00;99.90
28614;DHT22;15806;53.548;9.964;2022-10-22T08:50:58;25.40;99.90
28614;DHT22;15806;53.548;9.964;2022-10-22T08:52:41;24.80;99.90
28614;DHT22;15806;53.548;9.964;2022-10-22T08:54:48;24.50;99.90
28614;DHT22;15806;53.548;9.964;2022-10-22T08:56:30;24.00;99.90
28614;DHT22;15806;53.548;9.964;2022-10-22T08:58:58;23.70;99.90
28614;DHT22;15806;53.548;9.964;2022-10-22T09:00:43;23.20;99.90
28614;DHT22;15806;53.548;9.964;2022-10-22T09:04:29;21.30;99.90
28614;DHT22;15806;53.548;9.964;2022-10-22T09:06:17;21.20;99.90
28614;DHT22;15806;53.548;9.964;2022-10-22T09:07:58;20.90;99.90
28614;DHT22;15806;53.548;9.964;2022-10-22T09:09:42;20.80;99.90
28614;DHT22;15806;53.548;9.964;2022-10-22T09:11:31;20.50;99.90
28614;DHT22;15806;53.548;9.964;2022-10-22T09:13:15;20.30;99.90
28614;DHT22;15806;53.548;9.964;2022-10-22T09:14:56;20.40;99.90
28614;DHT22;15806;53.548;9.964;2022-10-22T09:16:51;20.30;99.90
28614;DHT22;15806;53.548;9.964;2022-10-22T09:20:37;20.00;99.90
28614;DHT22;15806;53.548;9.964;2022-10-22T09:22:44;20.00;99.90
28614;DHT22;15806;53.548;9.964;2022-10-22T09:24:36;19.90;99.90
28614;DHT22;15806;53.548;9.964;2022-10-22T09:26:17;19.50;99.90
28614;DHT22;15806;53.548;9.964;2022-10-22T09:27:58;19.50;99.90
28614;DHT22;15806;53.548;9.964;2022-10-22T09:29:39;19.50;99.90
28614;DHT22;15806;53.548;9.964;2022-10-22T09:31:19;19.50;99.90
28614;DHT22;15806;53.548;9.964;2022-10-22T09:34:47;19.40;99.90
28614;DHT22;15806;53.548;9.964;2022-10-22T09:36:28;19.40;99.90
28614;DHT22;15806;53.548;9.964;2022-10-22T09:38:13;19.50;99.90
28614;DHT22;15806;53.548;9.964;2022-10-22T09:39:56;19.50;99.90
28614;DHT22;15806;53.548;9.964;2022-10-22T09:41:37;19.50;99.90
28614;DHT22;15806;53.548;9.964;2022-10-22T09:43:18;19.50;99.90
28614;DHT22;15806;53.548;9.964;2022-10-22T09:44:58;19.40;99.90
28614;DHT22;15806;53.548;9.964;2022-10-22T09:46:39;19.50;99.90
28614;DHT22;15806;53.548;9.964;2022-10-22T09:48:22;19.50;99.90
28614;DHT22;15806;53.548;9.964;2022-10-22T09:50:28;19.50;99.90
28614;DHT22;15806;53.548;9.964;2022-10-22T09:52:25;19.50;99.90
28614;DHT22;15806;53.548;9.964;2022-10-22T09:54:36;19.50;99.90
28614;DHT22;15806;53.548;9.964;2022-10-22T09:56:33;19.30;99.90
28614;DHT22;15806;53.548;9.964;2022-10-22T09:58:13;19.30;99.90
28614;DHT22;15806;53.548;9.964;2022-10-22T09:59:54;19.30;99.90
28614;DHT22;15806;53.548;9.964;2022-10-22T10:01:35;19.30;99.90
28614;DHT22;15806;53.548;9.964;2022-10-22T10:03:19;19.40;99.90
28614;DHT22;15806;53.548;9.964;2022-10-22T10:05:02;19.40;99.90
28614;DHT22;15806;53.548;9.964;2022-10-22T10:06:43;19.30;99.90
28614;DHT22;15806;53.548;9.964;2022-10-22T10:08:24;19.40;99.90
28614;DHT22;15806;53.548;9.964;2022-10-22T10:10:18;19.40;99.90
28614;DHT22;15806;53.548;9.964;2022-10-22T10:13:45;19.40;99.90
28614;DHT22;15806;53.548;9.964;2022-10-22T10:15:43;19.40;99.90
28614;DHT22;15806;53.548;9.964;2022-10-22T10:19:37;19.30;99.90
28614;DHT22;15806;53.548;9.964;2022-10-22T10:21:34;19.30;99.90
28614;DHT22;15806;53.548;9.964;2022-10-22T10:25:45;19.30;99.90
28614;DHT22;15806;53.548;9.964;2022-10-22T10:28:03;19.40;99.90
28614;DHT22;15806;53.548;9.964;2022-10-22T10:30:08;19.40;99.90
28614;DHT22;15806;53.548;9.964;2022-10-22T10:32:20;19.30;99.90
28614;DHT22;15806;53.548;9.964;2022-10-22T10:34:16;19.00;99.90
28614;DHT22;15806;53.548;9.964;2022-10-22T10:38:00;19.10;99.90
28614;DHT22;15806;53.548;9.964;2022-10-22T10:44:22;19.00;99.90
28614;DHT22;15806;53.548;9.964;2022-10-22T10:46:27;19.00;99.90
28614;DHT22;15806;53.548;9.964;2022-10-22T10:52:52;19.00;99.90
28614;DHT22;15806;53.548;9.964;2022-10-22T10:54:40;19.20;99.90
28614;DHT22;15806;53.548;9.964;2022-10-22T10:58:24;19.40;99.90
28614;DHT22;15806;53.548;9.964;2022-10-22T11:00:14;19.40;99.90
28614;DHT22;15806;53.548;9.964;2022-10-22T11:04:12;19.80;99.90
28614;DHT22;15806;53.548;9.964;2022-10-22T11:06:00;20.30;99.90
28614;DHT22;15806;53.548;9.964;2022-10-22T11:07:50;20.70;99.90
28614;DHT22;15806;53.548;9.964;2022-10-22T11:10:38;20.30;99.90
28614;DHT22;15806;53.548;9.964;2022-10-22T11:11:50;20.10;99.90
28614;DHT22;15806;53.548;9.964;2022-10-22T11:15:31;20.50;99.90
28614;DHT22;15806;53.548;9.964;2022-10-22T11:17:16;20.50;99.90
28614;DHT22;15806;53.548;9.964;2022-10-22T11:19:32;20.80;99.90
28614;DHT22;15806;53.548;9.964;2022-10-22T11:21:27;20.70;99.90
28614;DHT22;15806;53.548;9.964;2022-10-22T11:25:24;21.50;99.90
28614;DHT22;15806;53.548;9.964;2022-10-22T11:28:56;20.50;99.90
28614;DHT22;15806;53.548;9.964;2022-10-22T11:30:41;20.70;99.90
28614;DHT22;15806;53.548;9.964;2022-10-22T11:32:23;20.60;99.90
28614;DHT22;15806;53.548;9.964;2022-10-22T11:34:26;21.00;99.90
28614;DHT22;15806;53.548;9.964;2022-10-22T11:36:11;21.10;99.90
28614;DHT22;15806;53.548;9.964;2022-10-22T11:37:54;21.60;99.90
28614;DHT22;15806;53.548;9.964;2022-10-22T11:39:49;22.30;99.90
28614;DHT22;15806;53.548;9.964;2022-10-22T11:41:32;22.20;99.90
28614;DHT22;15806;53.548;9.964;2022-10-22T11:45:39;21.90;99.90
28614;DHT22;15806;53.548;9.964;2022-10-22T11:47:24;21.60;99.90
28614;DHT22;15806;53.548;9.964;2022-10-22T11:49:17;21.60;99.90
28614;DHT22;15806;53.548;9.964;2022-10-22T11:51:00;21.80;99.90
28614;DHT22;15806;53.548;9.964;2022-10-22T11:52:54;21.60;99.90
28614;DHT22;15806;53.548;9.964;2022-10-22T11:54:40;21.70;99.90
28614;DHT22;15806;53.548;9.964;2022-10-22T11:56:24;21.40;99.90
28614;DHT22;15806;53.548;9.964;2022-10-22T12:00:32;21.20;99.90
28614;DHT22;15806;53.548;9.964;2022-10-22T12:04:18;20.80;99.90
28614;DHT22;15806;53.548;9.964;2022-10-22T12:08:02;20.80;99.90
28614;DHT22;15806;53.548;9.964;2022-10-22T12:09:43;20.60;99.90
28614;DHT22;15806;53.548;9.964;2022-10-22T12:13:27;20.80;99.90
28614;DHT22;15806;53.548;9.964;2022-10-22T12:15:25;20.40;99.90
28614;DHT22;15806;53.548;9.964;2022-10-22T12:17:14;20.60;99.90
28614;DHT22;15806;53.548;9.964;2022-10-22T12:19:25;20.00;99.90
28614;DHT22;15806;53.548;9.964;2022-10-22T12:21:03;19.90;99.90
28614;DHT22;15806;53.548;9.964;2022-10-22T12:22:45;19.40;99.90
28614;DHT22;15806;53.548;9.964;2022-10-22T12:24:30;19.30;99.90
28614;DHT22;15806;53.548;9.964;2022-10-22T12:26:37;19.20;99.90
28614;DHT22;15806;53.548;9.964;2022-10-22T12:28:18;19.20;99.90
28614;DHT22;15806;53.548;9.964;2022-10-22T12:30:00;19.20;99.90
28614;DHT22;15806;53.548;9.964;2022-10-22T12:31:43;19.30;99.90
28614;DHT22;15806;53.548;9.964;2022-10-22T12:33:24;19.50;99.90
28614;DHT22;15806;53.548;9.964;2022-10-22T12:35:18;19.40;99.90
28614;DHT22;15806;53.548;9.964;2022-10-22T12:37:04;19.40;99.90
28614;DHT22;15806;53.548;9.964;2022-10-22T12:38:45;19.40;99.90
28614;DHT22;15806;53.548;9.964;2022-10-22T12:40:28;19.50;99.90
28614;DHT22;15806;53.548;9.964;2022-10-22T12:42:14;19.30;99.90
28614;DHT22;15806;53.548;9.964;2022-10-22T12:44:00;19.10;99.90
28614;DHT22;15806;53.548;9.964;2022-10-22T12:45:44;19.00;99.90
28614;DHT22;15806;53.548;9.964;2022-10-22T12:47:28;19.10;99.90
28614;DHT22;15806;53.548;9.964;2022-10-22T12:49:15;19.10;99.90
28614;DHT22;15806;53.548;9.964;2022-10-22T12:51:00;19.10;99.90
28614;DHT22;15806;53.548;9.964;2022-10-22T12:52:41;19.00;99.90
28614;DHT22;15806;53.548;9.964;2022-10-22T12:54:27;19.00;99.90
28614;DHT22;15806;53.548;9.964;2022-10-22T12:56:20;19.10;99.90
28614;DHT22;15806;53.548;9.964;2022-10-22T12:58:05;19.30;99.90
28614;DHT22;15806;53.548;9.964;2022-10-22T12:59:48;19.50;99.90
28614;DHT22;15806;53.548;9.964;2022-10-22T13:01:37;19.40;99.90
28614;DHT22;15806;53.548;9.964;2022-10-22T13:03:32;19.10;99.90
28614;DHT22;15806;53.548;9.964;2022-10-22T13:10:39;19.10;99.90
28614;DHT22;15806;53.548;9.964;2022-10-22T13:12:25;19.10;99.90
28614;DHT22;15806;53.548;9.964;2022-10-22T13:16:22;19.10;99.90
28614;DHT22;15806;53.548;9.964;2022-10-22T13:19:46;18.90;99.90
28614;DHT22;15806;53.548;9.964;2022-10-22T13:21:35;18.90;99.90
28614;DHT22;15806;53.548;9.964;2022-10-22T13:23:19;19.00;99.90
28614;DHT22;15806;53.548;9.964;2022-10-22T13:25:22;18.80;99.90
28614;DHT22;15806;53.548;9.964;2022-10-22T13:27:04;18.90;99.90
28614;DHT22;15806;53.548;9.964;2022-10-22T13:28:59;19.00;99.90
28614;DHT22;15806;53.548;9.964;2022-10-22T13:31:10;18.90;99.90
28614;DHT22;15806;53.548;9.964;2022-10-22T13:32:59;19.00;99.90
28614;DHT22;15806;53.548;9.964;2022-10-22T13:34:42;19.00;99.90
28614;DHT22;15806;53.548;9.964;2022-10-22T13:36:23;19.00;99.90
28614;DHT22;15806;53.548;9.964;2022-10-22T13:38:16;19.10;99.90
28614;DHT22;15806;53.548;9.964;2022-10-22T13:39:57;19.10;99.90
28614;DHT22;15806;53.548;9.964;2022-10-22T13:41:38;19.10;99.90
28614;DHT22;15806;53.548;9.964;2022-10-22T13:43:19;19.10;99.90
28614;DHT22;15806;53.548;9.964;2022-10-22T13:44:59;19.10;99.90
28614;DHT22;15806;53.548;9.964;2022-10-22T13:46:40;19.00;99.90
28614;DHT22;15806;53.548;9.964;2022-10-22T13:48:22;18.90;99.90
28614;DHT22;15806;53.548;9.964;2022-10-22T13:50:13;18.80;99.90
28614;DHT22;15806;53.548;9.964;2022-10-22T13:51:55;18.80;99.90
28614;DHT22;15806;53.548;9.964;2022-10-22T13:53:36;18.90;99.90
28614;DHT22;15806;53.548;9.964;2022-10-22T13:55:28;18.80;99.90
28614;DHT22;15806;53.548;9.964;2022-10-22T13:57:09;18.90;99.90
28614;DHT22;15806;53.548;9.964;2022-10-22T13:58:50;18.90;99.90
28614;DHT22;15806;53.548;9.964;2022-10-22T14:00:30;18.90;99.90
28614;DHT22;15806;53.548;9.964;2022-10-22T14:02:11;18.90;99.90
28614;DHT22;15806;53.548;9.964;2022-10-22T14:03:58;18.90;99.90
28614;DHT22;15806;53.548;9.964;2022-10-22T14:05:39;18.80;99.90
28614;DHT22;15806;53.548;9.964;2022-10-22T14:07:20;18.80;99.90
28614;DHT22;15806;53.548;9.964;2022-10-22T14:09:06;18.80;99.90
28614;DHT22;15806;53.548;9.964;2022-10-22T14:10:49;18.90;99.90
28614;DHT22;15806;53.548;9.964;2022-10-22T14:12:30;18.90;99.90
28614;DHT22;15806;53.548;9.964;2022-10-22T14:14:11;18.80;99.90
28614;DHT22;15806;53.548;9.964;2022-10-22T14:15:52;18.80;99.90
28614;DHT22;15806;53.548;9.964;2022-10-22T14:17:33;18.70;99.90
28614;DHT22;15806;53.548;9.964;2022-10-22T14:19:15;18.70;99.90
28614;DHT22;15806;53.548;9.964;2022-10-22T14:20:59;18.70;99.90
28614;DHT22;15806;53.548;9.964;2022-10-22T14:22:40;18.60;99.90
28614;DHT22;15806;53.548;9.964;2022-10-22T14:24:22;18.60;99.90
28614;DHT22;15806;53.548;9.964;2022-10-22T14:26:03;18.70;99.90
28614;DHT22;15806;53.548;9.964;2022-10-22T14:27:44;18.70;99.90
28614;DHT22;15806;53.548;9.964;2022-10-22T14:29:25;18.70;99.90
28614;DHT22;15806;53.548;9.964;2022-10-22T14:31:07;18.70;99.90
28614;DHT22;15806;53.548;9.964;2022-10-22T14:32:48;18.70;99.90
28614;DHT22;15806;53.548;9.964;2022-10-22T14:34:29;18.70;99.90
28614;DHT22;15806;53.548;9.964;2022-10-22T14:36:13;18.70;99.90
28614;DHT22;15806;53.548;9.964;2022-10-22T14:37:54;18.70;99.90
28614;DHT22;15806;53.548;9.964;2022-10-22T14:39:34;18.70;99.90
28614;DHT22;15806;53.548;9.964;2022-10-22T14:41:24;18.80;99.90
28614;DHT22;15806;53.548;9.964;2022-10-22T14:43:22;18.70;99.90
28614;DHT22;15806;53.548;9.964;2022-10-22T14:45:04;18.70;99.90
28614;DHT22;15806;53.548;9.964;2022-10-22T14:46:44;18.70;99.90
28614;DHT22;15806;53.548;9.964;2022-10-22T14:48:26;18.70;99.90
28614;DHT22;15806;53.548;9.964;2022-10-22T14:50:07;18.70;99.90
28614;DHT22;15806;53.548;9.964;2022-10-22T14:51:47;18.60;99.90
28614;DHT22;15806;53.548;9.964;2022-10-22T14:53:28;18.60;99.90
28614;DHT22;15806;53.548;9.964;2022-10-22T14:55:10;18.60;99.90
28614;DHT22;15806;53.548;9.964;2022-10-22T14:56:50;18.60;99.90
28614;DHT22;15806;53.548;9.964;2022-10-22T14:58:31;18.60;99.90
28614;DHT22;15806;53.548;9.964;2022-10-22T15:00:32;18.60;99.90
28614;DHT22;15806;53.548;9.964;2022-10-22T15:02:12;18.50;99.90
28614;DHT22;15806;53.548;9.964;2022-10-22T15:03:53;18.50;99.90
28614;DHT22;15806;53.548;9.964;2022-10-22T15:05:33;18.50;99.90
28614;DHT22;15806;53.548;9.964;2022-10-22T15:07:14;18.50;99.90
28614;DHT22;15806;53.548;9.964;2022-10-22T15:08:54;18.50;99.90
28614;DHT22;15806;53.548;9.964;2022-10-22T15:10:35;18.50;99.90
28614;DHT22;15806;53.548;9.964;2022-10-22T15:12:16;18.50;99.90
28614;DHT22;15806;53.548;9.964;2022-10-22T15:13:56;18.40;99.90
28614;DHT22;15806;53.548;9.964;2022-10-22T15:15:41;18.50;99.90
28614;DHT22;15806;53.548;9.964;2022-10-22T15:17:22;18.40;99.90
28614;DHT22;15806;53.548;9.964;2022-10-22T15:19:02;18.40;99.90
28614;DHT22;15806;53.548;9.964;2022-10-22T15:20:43;18.40;99.90
28614;DHT22;15806;53.548;9.964;2022-10-22T15:22:24;18.40;99.90
28614;DHT22;15806;53.548;9.964;2022-10-22T15:24:05;18.40;99.90
28614;DHT22;15806;53.548;9.964;2022-10-22T15:25:45;18.30;99.90
28614;DHT22;15806;53.548;9.964;2022-10-22T15:27:26;18.30;99.90
28614;DHT22;15806;53.548;9.964;2022-10-22T15:29:06;18.30;99.90
28614;DHT22;15806;53.548;9.964;2022-10-22T15:30:55;18.40;99.90
28614;DHT22;15806;53.548;9.964;2022-10-22T15:32:36;18.30;99.90
28614;DHT22;15806;53.548;9.964;2022-10-22T15:34:25;18.30;99.90
28614;DHT22;15806;53.548;9.964;2022-10-22T15:36:11;18.20;99.90
28614;DHT22;15806;53.548;9.964;2022-10-22T15:37:52;18.20;99.90
28614;DHT22;15806;53.548;9.964;2022-10-22T15:39:34;18.20;99.90
28614;DHT22;15806;53.548;9.964;2022-10-22T15:41:16;18.10;99.90
28614;DHT22;15806;53.548;9.964;2022-10-22T15:42:56;18.10;99.90
28614;DHT22;15806;53.548;9.964;2022-10-22T15:44:37;18.20;99.90
28614;DHT22;15806;53.548;9.964;2022-10-22T15:46:18;18.20;99.90
28614;DHT22;15806;53.548;9.964;2022-10-22T15:47:59;18.20;99.90
28614;DHT22;15806;53.548;9.964;2022-10-22T15:49:39;18.30;99.90
28614;DHT22;15806;53.548;9.964;2022-10-22T15:51:20;18.10;99.90
28614;DHT22;15806;53.548;9.964;2022-10-22T15:53:00;18.10;99.90
28614;DHT22;15806;53.548;9.964;2022-10-22T15:54:41;18.20;99.90
28614;DHT22;15806;53.548;9.964;2022-10-22T15:56:23;18.10;99.90
28614;DHT22;15806;53.548;9.964;2022-10-22T15:58:03;18.20;99.90
28614;DHT22;15806;53.548;9.964;2022-10-22T15:59:44;18.20;99.90
28614;DHT22;15806;53.548;9.964;2022-10-22T16:01:26;18.20;99.90
28614;DHT22;15806;53.548;9.964;2022-10-22T16:03:08;18.20;99.90
28614;DHT22;15806;53.548;9.964;2022-10-22T16:04:48;18.20;99.90
28614;DHT22;15806;53.548;9.964;2022-10-22T16:06:32;18.30;99.90
28614;DHT22;15806;53.548;9.964;2022-10-22T16:08:12;18.40;99.90
28614;DHT22;15806;53.548;9.964;2022-10-22T16:09:57;18.40;99.90
28614;DHT22;15806;53.548;9.964;2022-10-22T16:11:38;18.40;99.90
28614;DHT22;15806;53.548;9.964;2022-10-22T16:13:21;18.50;99.90
28614;DHT22;15806;53.548;9.964;2022-10-22T16:15:02;18.50;99.90
28614;DHT22;15806;53.548;9.964;2022-10-22T16:16:46;18.60;99.90
28614;DHT22;15806;53.548;9.964;2022-10-22T16:18:28;18.60;99.90
28614;DHT22;15806;53.548;9.964;2022-10-22T16:20:09;18.70;99.90
28614;DHT22;15806;53.548;9.964;2022-10-22T16:21:52;18.70;99.90
28614;DHT22;15806;53.548;9.964;2022-10-22T16:23:33;18.80;99.90
28614;DHT22;15806;53.548;9.964;2022-10-22T16:25:15;18.80;99.90
28614;DHT22;15806;53.548;9.964;2022-10-22T16:26:55;18.90;99.90
28614;DHT22;15806;53.548;9.964;2022-10-22T16:28:36;18.90;99.90
28614;DHT22;15806;53.548;9.964;2022-10-22T16:30:17;19.00;99.90
28614;DHT22;15806;53.548;9.964;2022-10-22T16:31:57;19.10;99.90
28614;DHT22;15806;53.548;9.964;2022-10-22T16:33:39;19.20;99.90
28614;DHT22;15806;53.548;9.964;2022-10-22T16:35:20;19.20;99.90
28614;DHT22;15806;53.548;9.964;2022-10-22T16:37:00;19.30;99.90
28614;DHT22;15806;53.548;9.964;2022-10-22T16:38:41;19.30;99.90
28614;DHT22;15806;53.548;9.964;2022-10-22T16:40:22;19.30;99.90
28614;DHT22;15806;53.548;9.964;2022-10-22T16:42:04;19.40;99.90
28614;DHT22;15806;53.548;9.964;2022-10-22T16:43:48;19.40;99.90
28614;DHT22;15806;53.548;9.964;2022-10-22T16:45:30;19.30;99.90
28614;DHT22;15806;53.548;9.964;2022-10-22T16:47:10;19.20;99.90
28614;DHT22;15806;53.548;9.964;2022-10-22T16:48:51;19.30;99.90
28614;DHT22;15806;53.548;9.964;2022-10-22T16:50:32;19.30;99.90
28614;DHT22;15806;53.548;9.964;2022-10-22T16:52:13;19.30;99.90
28614;DHT22;15806;53.548;9.964;2022-10-22T16:53:55;19.30;99.90
28614;DHT22;15806;53.548;9.964;2022-10-22T16:55:36;19.30;99.90
28614;DHT22;15806;53.548;9.964;2022-10-22T16:57:17;19.30;99.90
28614;DHT22;15806;53.548;9.964;2022-10-22T16:58:57;19.30;99.90
28614;DHT22;15806;53.548;9.964;2022-10-22T17:00:38;19.40;99.90
28614;DHT22;15806;53.548;9.964;2022-10-22T17:02:19;19.40;99.90
28614;DHT22;15806;53.548;9.964;2022-10-22T17:04:00;19.40;99.90
28614;DHT22;15806;53.548;9.964;2022-10-22T17:05:40;19.40;99.90
28614;DHT22;15806;53.548;9.964;2022-10-22T17:07:22;19.50;99.90
28614;DHT22;15806;53.548;9.964;2022-10-22T17:09:03;19.50;99.90
28614;DHT22;15806;53.548;9.964;2022-10-22T17:10:43;19.40;99.90
28614;DHT22;15806;53.548;9.964;2022-10-22T17:12:24;19.50;99.90
28614;DHT22;15806;53.548;9.964;2022-10-22T17:14:05;19.50;99.90
28614;DHT22;15806;53.548;9.964;2022-10-22T17:15:45;19.50;99.90
28614;DHT22;15806;53.548;9.964;2022-10-22T17:17:26;19.60;99.90
28614;DHT22;15806;53.548;9.964;2022-10-22T17:19:09;19.60;99.90
28614;DHT22;15806;53.548;9.964;2022-10-22T17:20:50;19.60;99.90
28614;DHT22;15806;53.548;9.964;2022-10-22T17:22:31;19.60;99.90
28614;DHT22;15806;53.548;9.964;2022-10-22T17:24:12;19.70;99.90
28614;DHT22;15806;53.548;9.964;2022-10-22T17:26:01;19.70;99.90
28614;DHT22;15806;53.548;9.964;2022-10-22T17:27:42;19.90;99.90
28614;DHT22;15806;53.548;9.964;2022-10-22T17:29:23;19.80;99.90
28614;DHT22;15806;53.548;9.964;2022-10-22T17:31:24;19.80;99.90
28614;DHT22;15806;53.548;9.964;2022-10-22T17:33:07;19.90;99.90
28614;DHT22;15806;53.548;9.964;2022-10-22T17:34:47;19.90;99.90
28614;DHT22;15806;53.548;9.964;2022-10-22T17:36:28;20.00;99.90
28614;DHT22;15806;53.548;9.964;2022-10-22T17:38:09;20.00;99.90
28614;DHT22;15806;53.548;9.964;2022-10-22T17:39:51;19.90;99.90
28614;DHT22;15806;53.548;9.964;2022-10-22T17:41:33;19.90;99.90
28614;DHT22;15806;53.548;9.964;2022-10-22T17:43:14;19.90;99.90
28614;DHT22;15806;53.548;9.964;2022-10-22T17:44:54;20.00;99.90
28614;DHT22;15806;53.548;9.964;2022-10-22T17:46:35;19.90;99.90
28614;DHT22;15806;53.548;9.964;2022-10-22T17:48:17;20.00;99.90
28614;DHT22;15806;53.548;9.964;2022-10-22T17:49:59;19.90;99.90
28614;DHT22;15806;53.548;9.964;2022-10-22T17:51:39;20.00;99.90
28614;DHT22;15806;53.548;9.964;2022-10-22T17:53:23;20.00;99.90